Solea — DBFI — position and weather

sailwx.info

Track history (hours):
 
Tides and Currents Weather Stations Pressure Air Temp Water Temp Dewpoint Dewpoint Depression Visibility Wind Speed Wind Dir Waves Ship Positions

Oceanographic research ship Solea (Germany)

Detailed information on ship capabilities available from University of Delaware's Ocean Information Center.

Last reported at 2019-Dec-15 07:29 UTC. Time now 2019-Dec-15 09:53 UTC.
Position N 53°41' E 008°04'.

Length 72 m; draft 5.2 m.

Type: Law enforcement. MMSI: 218692000.

Date/timePositionNaut miles runAvg speedWind from/ knotsBaromVisibWave heightAir tempDewpointWater temp
2019-Dec-15 07:29N 53°41' E 008°04'26 7.6
2019-Dec-15 04:00N 53°48' E 007°21'4 7.9
2019-Dec-15 03:30N 53°47' E 007°15'1 1.3
2019-Dec-15 03:00N 53°48' E 007°14'18 6.1
2019-Dec-15 00:00N 53°51' E 007°45'7 7.8
2019-Dec-14 23:04N 53°49' E 007°33'2 0.4
2019-Dec-14 17:15N 53°48' E 007°29'2 1.1
2019-Dec-14 15:16N 53°47' E 007°26'2 9.5
2019-Dec-14 15:01N 53°47' E 007°22'5 9.7
2019-Dec-14 14:30N 53°46' E 007°14'8 3.6
2019-Dec-14 12:23N 53°48' E 007°26'5 2.3
2019-Dec-14 10:02N 53°48' E 007°35'4 1.2
2019-Dec-14 07:00N 53°48' E 007°29'1 1.1
2019-Dec-14 06:30N 53°48' E 007°28'1 2.4
2019-Dec-14 06:00N 53°48' E 007°27'0 0.5
2019-Dec-14 05:00N 53°48' E 007°27'1 2.2
2019-Dec-14 04:30N 53°48' E 007°25'5 4.6
2019-Dec-14 03:30N 53°47' E 007°18'1 2.5
2019-Dec-14 03:00N 53°47' E 007°16'3 1.9
2019-Dec-14 01:30N 53°49' E 007°19'4 1.8
2019-Dec-13 23:09N 53°51' E 007°25'4 0.6
2019-Dec-13 16:49N 53°48' E 007°29'2 2.1
2019-Dec-13 15:47N 53°48' E 007°25'4 1.4
2019-Dec-13 13:00N 53°47' E 007°19'13 2.9
2019-Dec-13 08:30N 53°45' E 006°58'14 0.3
2019-Dec-11 11:00N 53°49' E 007°20'5 2.3
2019-Dec-11 09:00N 53°47' E 007°27'3 1.7
2019-Dec-11 07:30N 53°47' E 007°23'3 0.3
2019-Dec-10 23:00N 53°46' E 007°19'0 0.2
2019-Dec-10 22:00N 53°46' E 007°19'0 0.3
2019-Dec-10 20:30N 53°46' E 007°19'1 0.3
2019-Dec-10 18:30N 53°46' E 007°18'0 0.1
2019-Dec-10 16:30N 53°46' E 007°18'0 0.1
2019-Dec-10 14:30N 53°46' E 007°18'1 0.4
2019-Dec-10 13:00N 53°47' E 007°18'0 0.5
2019-Dec-10 12:30N 53°47' E 007°18'6 6.1
2019-Dec-10 11:29N 53°53' E 007°18'18 8.9
2019-Dec-10 09:30N 54°02' E 007°43'37 1.4
2019-Dec-09 06:59N 53°52' E 008°43'0 0.0
2019-Dec-09 04:29N 53°52' E 008°43'0 0.0
2019-Dec-09 03:29N 53°52' E 008°43'0 0.0
2019-Dec-08 22:29N 53°52' E 008°43'0 0.0
2019-Dec-08 20:29N 53°52' E 008°43'0 0.0
2019-Dec-08 19:59N 53°52' E 008°43'0 0.0
2019-Dec-08 17:59N 53°52' E 008°43'0 0.0
2019-Dec-08 16:59N 53°52' E 008°43'0 0.0
2019-Dec-08 12:59N 53°52' E 008°43'0 0.0
2019-Dec-08 10:59N 53°52' E 008°43'0 0.0
2019-Dec-08 09:59N 53°52' E 008°43'0 0.0
2019-Dec-08 08:59N 53°52' E 008°43'0 0.0
2019-Dec-08 03:29N 53°52' E 008°43'0 0.0
2019-Dec-08 02:59N 53°52' E 008°43'0 0.0
2019-Dec-08 02:29N 53°52' E 008°43'0 0.0
2019-Dec-08 01:29N 53°52' E 008°43'0 0.0
2019-Dec-07 23:59N 53°52' E 008°43'0 0.0
2019-Dec-07 23:29N 53°52' E 008°43'0 0.0
2019-Dec-07 21:29N 53°52' E 008°43'0 0.0
2019-Dec-07 20:29N 53°52' E 008°43'0 0.0
2019-Dec-07 15:29N 53°52' E 008°43'0 0.0
2019-Dec-07 14:29N 53°52' E 008°43'0 0.0
2019-Dec-07 13:59N 53°52' E 008°43'0 0.0
2019-Dec-07 10:29N 53°52' E 008°43'0 0.0
2019-Dec-07 09:29N 53°52' E 008°43'0 0.0
2019-Dec-07 08:29N 53°52' E 008°43'0 0.0
2019-Dec-07 06:59N 53°52' E 008°43'0 0.0
2019-Dec-07 06:29N 53°52' E 008°43'0 0.0
2019-Dec-07 04:29N 53°52' E 008°43'0 0.0
2019-Dec-07 03:00N 53°52' E 008°43'0 0.0
2019-Dec-07 00:59N 53°52' E 008°43'0 0.0
2019-Dec-06 23:59N 53°52' E 008°43'0 0.0
2019-Dec-06 23:29N 53°52' E 008°43'0 0.0
2019-Dec-06 21:29N 53°52' E 008°43'0 0.0
2019-Dec-06 20:59N 53°52' E 008°43'0 0.0
2019-Dec-06 19:59N 53°52' E 008°43'0 0.0
2019-Dec-06 19:29N 53°52' E 008°43'0 0.0
2019-Dec-06 17:56N 53°52' E 008°43'0 0.0
2019-Dec-06 16:59N 53°52' E 008°43'0 0.0
2019-Dec-06 15:59N 53°52' E 008°43'0 0.0
2019-Dec-06 14:29N 53°52' E 008°43'0 0.0
2019-Dec-06 13:59N 53°52' E 008°43'0 0.0
2019-Dec-06 12:59N 53°52' E 008°43'0 0.0
2019-Dec-06 12:29N 53°52' E 008°43'0 0.0
2019-Dec-06 11:59N 53°52' E 008°43'0 0.0
2019-Dec-06 10:59N 53°52' E 008°43'0 0.0
2019-Dec-06 06:59N 53°52' E 008°43'0 0.0
2019-Dec-06 06:29N 53°52' E 008°43'0 0.0
2019-Dec-06 04:29N 53°52' E 008°43'0 0.0
2019-Dec-06 01:59N 53°52' E 008°43'0 0.0
2019-Dec-06 01:29N 53°52' E 008°43'0 0.0
2019-Dec-05 22:29N 53°52' E 008°43'0 0.0
2019-Dec-05 19:29N 53°52' E 008°43'0 0.0
2019-Dec-05 18:29N 53°52' E 008°43'0 0.0
2019-Dec-05 17:29N 53°52' E 008°43'0 0.0
2019-Dec-05 16:29N 53°52' E 008°43'0 0.0
2019-Dec-05 15:29N 53°52' E 008°43'0 0.0
2019-Dec-05 13:29N 53°52' E 008°43'0 0.0
2019-Dec-05 12:59N 53°52' E 008°43'0 0.0
2019-Dec-05 08:59N 53°52' E 008°43'  
Track history (hours):
 
Tides and Currents Weather Stations Pressure Air Temp Water Temp Dewpoint Dewpoint Depression Visibility Wind Speed Wind Dir Waves Ship Positions

Oceanographic research ship Solea (Germany)

Detailed information on ship capabilities available from University of Delaware's Ocean Information Center.

Last reported at 2019-Dec-15 07:29 UTC. Time now 2019-Dec-15 09:53 UTC.
Position N 53°41' E 008°04'.

Length 72 m; draft 5.2 m.

Type: Law enforcement. MMSI: 218692000.

Date/timePositionNaut miles runAvg speedWind from/ knotsBaromVisibWave heightAir tempDewpointWater temp
2019-Dec-15 07:29N 53°41' E 008°04'26 7.6
2019-Dec-15 04:00N 53°48' E 007°21'4 7.9
2019-Dec-15 03:30N 53°47' E 007°15'1 1.3
2019-Dec-15 03:00N 53°48' E 007°14'18 6.1
2019-Dec-15 00:00N 53°51' E 007°45'7 7.8
2019-Dec-14 23:04N 53°49' E 007°33'2 0.4
2019-Dec-14 17:15N 53°48' E 007°29'2 1.1
2019-Dec-14 15:16N 53°47' E 007°26'2 9.5
2019-Dec-14 15:01N 53°47' E 007°22'5 9.7
2019-Dec-14 14:30N 53°46' E 007°14'8 3.6
2019-Dec-14 12:23N 53°48' E 007°26'5 2.3
2019-Dec-14 10:02N 53°48' E 007°35'4 1.2
2019-Dec-14 07:00N 53°48' E 007°29'1 1.1
2019-Dec-14 06:30N 53°48' E 007°28'1 2.4
2019-Dec-14 06:00N 53°48' E 007°27'0 0.5
2019-Dec-14 05:00N 53°48' E 007°27'1 2.2
2019-Dec-14 04:30N 53°48' E 007°25'5 4.6
2019-Dec-14 03:30N 53°47' E 007°18'1 2.5
2019-Dec-14 03:00N 53°47' E 007°16'3 1.9
2019-Dec-14 01:30N 53°49' E 007°19'4 1.8
2019-Dec-13 23:09N 53°51' E 007°25'4 0.6
2019-Dec-13 16:49N 53°48' E 007°29'2 2.1
2019-Dec-13 15:47N 53°48' E 007°25'4 1.4
2019-Dec-13 13:00N 53°47' E 007°19'13 2.9
2019-Dec-13 08:30N 53°45' E 006°58'14 0.3
2019-Dec-11 11:00N 53°49' E 007°20'5 2.3
2019-Dec-11 09:00N 53°47' E 007°27'3 1.7
2019-Dec-11 07:30N 53°47' E 007°23'3 0.3
2019-Dec-10 23:00N 53°46' E 007°19'0 0.2
2019-Dec-10 22:00N 53°46' E 007°19'0 0.3
2019-Dec-10 20:30N 53°46' E 007°19'1 0.3
2019-Dec-10 18:30N 53°46' E 007°18'0 0.1
2019-Dec-10 16:30N 53°46' E 007°18'0 0.1
2019-Dec-10 14:30N 53°46' E 007°18'1 0.4
2019-Dec-10 13:00N 53°47' E 007°18'0 0.5
2019-Dec-10 12:30N 53°47' E 007°18'6 6.1
2019-Dec-10 11:29N 53°53' E 007°18'18 8.9
2019-Dec-10 09:30N 54°02' E 007°43'37 1.4
2019-Dec-09 06:59N 53°52' E 008°43'0 0.0
2019-Dec-09 04:29N 53°52' E 008°43'0 0.0
2019-Dec-09 03:29N 53°52' E 008°43'0 0.0
2019-Dec-08 22:29N 53°52' E 008°43'0 0.0
2019-Dec-08 20:29N 53°52' E 008°43'0 0.0
2019-Dec-08 19:59N 53°52' E 008°43'0 0.0
2019-Dec-08 17:59N 53°52' E 008°43'0 0.0
2019-Dec-08 16:59N 53°52' E 008°43'0 0.0
2019-Dec-08 12:59N 53°52' E 008°43'0 0.0
2019-Dec-08 10:59N 53°52' E 008°43'0 0.0
2019-Dec-08 09:59N 53°52' E 008°43'0 0.0
2019-Dec-08 08:59N 53°52' E 008°43'0 0.0
2019-Dec-08 03:29N 53°52' E 008°43'0 0.0
2019-Dec-08 02:59N 53°52' E 008°43'0 0.0
2019-Dec-08 02:29N 53°52' E 008°43'0 0.0
2019-Dec-08 01:29N 53°52' E 008°43'0 0.0
2019-Dec-07 23:59N 53°52' E 008°43'0 0.0
2019-Dec-07 23:29N 53°52' E 008°43'0 0.0
2019-Dec-07 21:29N 53°52' E 008°43'0 0.0
2019-Dec-07 20:29N 53°52' E 008°43'0 0.0
2019-Dec-07 15:29N 53°52' E 008°43'0 0.0
2019-Dec-07 14:29N 53°52' E 008°43'0 0.0
2019-Dec-07 13:59N 53°52' E 008°43'0 0.0
2019-Dec-07 10:29N 53°52' E 008°43'0 0.0
2019-Dec-07 09:29N 53°52' E 008°43'0 0.0
2019-Dec-07 08:29N 53°52' E 008°43'0 0.0
2019-Dec-07 06:59N 53°52' E 008°43'0 0.0
2019-Dec-07 06:29N 53°52' E 008°43'0 0.0
2019-Dec-07 04:29N 53°52' E 008°43'0 0.0
2019-Dec-07 03:00N 53°52' E 008°43'0 0.0
2019-Dec-07 00:59N 53°52' E 008°43'0 0.0
2019-Dec-06 23:59N 53°52' E 008°43'0 0.0
2019-Dec-06 23:29N 53°52' E 008°43'0 0.0
2019-Dec-06 21:29N 53°52' E 008°43'0 0.0
2019-Dec-06 20:59N 53°52' E 008°43'0 0.0
2019-Dec-06 19:59N 53°52' E 008°43'0 0.0
2019-Dec-06 19:29N 53°52' E 008°43'0 0.0
2019-Dec-06 17:56N 53°52' E 008°43'0 0.0
2019-Dec-06 16:59N 53°52' E 008°43'0 0.0
2019-Dec-06 15:59N 53°52' E 008°43'0 0.0
2019-Dec-06 14:29N 53°52' E 008°43'0 0.0
2019-Dec-06 13:59N 53°52' E 008°43'0 0.0
2019-Dec-06 12:59N 53°52' E 008°43'0 0.0
2019-Dec-06 12:29N 53°52' E 008°43'0 0.0
2019-Dec-06 11:59N 53°52' E 008°43'0 0.0
2019-Dec-06 10:59N 53°52' E 008°43'0 0.0
2019-Dec-06 06:59N 53°52' E 008°43'0 0.0
2019-Dec-06 06:29N 53°52' E 008°43'0 0.0
2019-Dec-06 04:29N 53°52' E 008°43'0 0.0
2019-Dec-06 01:59N 53°52' E 008°43'0 0.0
2019-Dec-06 01:29N 53°52' E 008°43'0 0.0
2019-Dec-05 22:29N 53°52' E 008°43'0 0.0
2019-Dec-05 19:29N 53°52' E 008°43'0 0.0
2019-Dec-05 18:29N 53°52' E 008°43'0 0.0
2019-Dec-05 17:29N 53°52' E 008°43'0 0.0
2019-Dec-05 16:29N 53°52' E 008°43'0 0.0
2019-Dec-05 15:29N 53°52' E 008°43'0 0.0
2019-Dec-05 13:29N 53°52' E 008°43'0 0.0
2019-Dec-05 12:59N 53°52' E 008°43'0 0.0
2019-Dec-05 08:59N 53°52' E 008°43'  

Dump ship's entire track history